createdAt,value
2022-10-18T00:02:03.167Z,13.63
2022-10-18T00:04:29.725Z,13.63
2022-10-18T00:06:55.986Z,13.62
2022-10-18T00:09:22.543Z,13.59
2022-10-18T00:11:48.903Z,13.57
2022-10-18T00:14:15.269Z,13.55
2022-10-18T00:16:41.497Z,13.53
2022-10-18T00:19:08.014Z,13.52
2022-10-18T00:21:34.461Z,13.50
2022-10-18T00:24:00.718Z,13.49
2022-10-18T00:26:28.576Z,13.47
2022-10-18T00:29:01.505Z,13.45
2022-10-18T00:31:33.599Z,13.44
2022-10-18T00:34:02.172Z,13.42
2022-10-18T00:36:30.933Z,13.40
2022-10-18T00:38:57.709Z,13.38
2022-10-18T00:41:27.825Z,13.35
2022-10-18T00:43:58.800Z,13.33
2022-10-18T00:46:28.712Z,13.31
2022-10-18T00:49:05.678Z,13.29
2022-10-18T00:51:43.583Z,13.27
2022-10-18T00:54:11.630Z,13.23
2022-10-18T00:56:38.301Z,13.20
2022-10-18T00:59:06.434Z,13.17
2022-10-18T01:01:32.707Z,13.16
2022-10-18T01:03:59.107Z,13.14
2022-10-18T01:06:27.505Z,13.13
2022-10-18T01:09:11.918Z,13.10
2022-10-18T01:11:38.089Z,13.09
2022-10-18T01:14:07.329Z,13.07
2022-10-18T01:16:41.474Z,13.04
2022-10-18T01:19:27.770Z,13.02
2022-10-18T01:22:01.450Z,12.99
2022-10-18T01:24:45.278Z,12.97
2022-10-18T01:27:43.624Z,12.96
2022-10-18T01:30:15.942Z,12.91
2022-10-18T01:32:47.959Z,12.88
2022-10-18T01:35:20.326Z,12.84
2022-10-18T01:37:50.239Z,12.79
2022-10-18T01:40:20.053Z,12.76
2022-10-18T01:42:48.616Z,12.72
2022-10-18T01:45:16.376Z,12.66
2022-10-18T01:47:45.575Z,12.60
2022-10-18T01:50:12.837Z,12.59
2022-10-18T01:52:55.118Z,12.60
2022-10-18T01:55:27.002Z,12.61
2022-10-18T01:58:25.170Z,12.62
2022-10-18T02:01:03.021Z,12.63
2022-10-18T02:03:29.275Z,12.64
2022-10-18T02:06:06.090Z,12.64
2022-10-18T02:08:43.300Z,12.64
2022-10-18T02:11:12.358Z,12.62
2022-10-18T02:14:01.846Z,12.59
2022-10-18T02:16:38.403Z,12.58
2022-10-18T02:21:54.212Z,12.56
2022-10-18T02:24:22.994Z,12.55
2022-10-18T02:26:49.550Z,12.55
2022-10-18T02:29:15.930Z,12.55
2022-10-18T02:31:48.948Z,12.54
2022-10-18T02:34:18.317Z,12.52
2022-10-18T02:36:49.463Z,12.51
2022-10-18T02:39:20.426Z,12.49
2022-10-18T02:41:46.780Z,12.47
2022-10-18T02:44:13.041Z,12.44
2022-10-18T02:46:39.857Z,12.42
2022-10-18T02:49:06.259Z,12.40
2022-10-18T02:51:33.015Z,12.38
2022-10-18T02:53:59.300Z,12.36
2022-10-18T02:56:25.552Z,12.32
2022-10-18T02:58:51.794Z,12.30
2022-10-18T03:01:18.049Z,12.28
2022-10-18T03:03:44.450Z,12.27
2022-10-18T03:06:10.687Z,12.25
2022-10-18T03:08:37.398Z,12.23
2022-10-18T03:11:03.757Z,12.21
2022-10-18T03:15:56.513Z,12.16
2022-10-18T03:18:22.868Z,12.14
2022-10-18T03:20:49.088Z,12.12
2022-10-18T03:23:15.296Z,12.11
2022-10-18T03:25:44.213Z,12.08
2022-10-18T03:28:12.669Z,12.06
2022-10-18T03:30:38.924Z,12.05
2022-10-18T03:33:06.167Z,12.04
2022-10-18T03:35:32.421Z,12.02
2022-10-18T03:37:58.670Z,12.02
2022-10-18T03:40:25.053Z,12.01
2022-10-18T03:42:51.318Z,11.99
2022-10-18T03:45:17.606Z,11.98
2022-10-18T03:47:43.836Z,11.96
2022-10-18T03:50:10.195Z,11.92
2022-10-18T03:52:36.476Z,11.90
2022-10-18T03:55:03.243Z,11.88
2022-10-18T03:57:29.975Z,11.86
2022-10-18T03:59:56.193Z,11.81
2022-10-18T04:02:22.550Z,11.80
2022-10-18T04:04:48.823Z,11.79
2022-10-18T04:07:15.402Z,11.77
2022-10-18T04:09:41.669Z,11.74
2022-10-18T04:12:07.884Z,11.70
2022-10-18T04:14:34.113Z,11.68
2022-10-18T04:17:00.352Z,11.65
2022-10-18T04:19:27.096Z,11.62
2022-10-18T04:21:53.634Z,11.60
2022-10-18T04:24:19.907Z,11.59
2022-10-18T04:26:46.245Z,11.58
2022-10-18T04:29:12.626Z,11.59
2022-10-18T04:31:39.102Z,11.60
2022-10-18T04:34:05.363Z,11.59
2022-10-18T04:36:31.666Z,11.58
2022-10-18T04:38:57.938Z,11.57
2022-10-18T04:41:24.219Z,11.58
2022-10-18T04:43:50.454Z,11.58
2022-10-18T04:46:16.770Z,11.60
2022-10-18T04:48:43.033Z,11.62
2022-10-18T04:51:09.235Z,11.64
2022-10-18T04:53:35.527Z,11.67
2022-10-18T04:56:01.810Z,11.70
2022-10-18T04:58:28.092Z,11.74
2022-10-18T05:00:54.362Z,11.79
2022-10-18T05:03:20.710Z,11.84
2022-10-18T05:06:03.153Z,11.89
2022-10-18T05:08:34.667Z,11.94
2022-10-18T05:11:02.560Z,11.97
2022-10-18T05:13:29.292Z,12.00
2022-10-18T05:15:55.612Z,12.02
2022-10-18T05:18:21.886Z,12.05
2022-10-18T05:20:48.097Z,12.07
2022-10-18T05:23:14.318Z,12.08
2022-10-18T05:25:42.030Z,12.09
2022-10-18T05:28:34.722Z,12.11
2022-10-18T05:30:55.479Z,12.13
2022-10-18T05:33:21.832Z,12.14
2022-10-18T05:35:48.155Z,12.17
2022-10-18T05:38:14.362Z,12.20
2022-10-18T05:40:40.619Z,12.21
2022-10-18T05:43:06.848Z,12.21
2022-10-18T05:45:33.112Z,12.23
2022-10-18T05:47:59.337Z,12.25
2022-10-18T05:50:25.575Z,12.27
2022-10-18T05:53:02.672Z,12.29
2022-10-18T05:55:38.945Z,12.30
2022-10-18T05:58:05.260Z,12.33
2022-10-18T06:00:31.560Z,12.36
2022-10-18T06:03:00.241Z,12.40
2022-10-18T06:05:27.287Z,12.45
2022-10-18T06:07:53.736Z,12.48
2022-10-18T06:10:20.021Z,12.52
2022-10-18T06:12:46.362Z,12.55
2022-10-18T06:15:12.831Z,12.58
2022-10-18T06:17:43.944Z,12.62
2022-10-18T06:20:48.218Z,12.66
2022-10-18T06:23:48.845Z,12.71
2022-10-18T06:26:19.389Z,12.76
2022-10-18T06:28:50.805Z,12.80
2022-10-18T06:31:20.737Z,12.86
2022-10-18T06:33:47.486Z,12.89
2022-10-18T06:36:17.154Z,12.89
2022-10-18T06:38:43.629Z,12.93
2022-10-18T06:41:10.202Z,13.00
2022-10-18T06:43:36.470Z,13.09
2022-10-18T06:46:06.208Z,13.13
2022-10-18T06:48:35.646Z,13.19
2022-10-18T06:51:04.769Z,13.24
2022-10-18T06:53:33.260Z,13.29
2022-10-18T06:56:06.001Z,13.34
2022-10-18T06:58:34.293Z,13.40
2022-10-18T07:01:17.267Z,13.44
2022-10-18T07:03:46.348Z,13.50
2022-10-18T07:06:15.001Z,13.54
2022-10-18T07:08:42.113Z,13.57
2022-10-18T07:11:14.682Z,13.60
2022-10-18T07:13:41.361Z,13.61
2022-10-18T07:16:14.099Z,13.64
2022-10-18T07:18:47.535Z,13.67
2022-10-18T07:21:15.206Z,13.71
2022-10-18T07:23:43.478Z,13.74
2022-10-18T07:26:17.341Z,13.77
2022-10-18T07:28:46.679Z,13.82
2022-10-18T07:31:13.140Z,13.86
2022-10-18T07:33:42.228Z,13.89
2022-10-18T07:36:10.875Z,13.92
2022-10-18T07:38:37.605Z,13.96
2022-10-18T07:41:06.115Z,14.01
2022-10-18T07:43:33.595Z,14.02
2022-10-18T07:46:02.012Z,14.04
2022-10-18T07:48:28.502Z,14.08
2022-10-18T07:50:58.715Z,14.10
2022-10-18T07:53:24.936Z,14.10
2022-10-18T07:55:52.401Z,14.11
2022-10-18T07:58:18.654Z,14.12
2022-10-18T08:00:44.873Z,14.16
2022-10-18T08:03:11.189Z,14.22
2022-10-18T08:05:37.425Z,14.27
2022-10-18T08:08:07.203Z,14.33
2022-10-18T08:10:35.496Z,14.40
2022-10-18T08:13:01.773Z,14.45
2022-10-18T08:15:28.026Z,14.50
2022-10-18T08:17:54.251Z,14.54
2022-10-18T08:20:30.351Z,14.59
2022-10-18T08:23:00.072Z,14.62
2022-10-18T08:25:28.292Z,14.65
2022-10-18T08:27:54.548Z,14.68
2022-10-18T08:30:22.627Z,14.67
2022-10-18T08:32:48.869Z,14.60
2022-10-18T08:35:15.241Z,14.54
2022-10-18T08:37:41.442Z,14.50
2022-10-18T08:40:12.429Z,14.45
2022-10-18T08:42:57.216Z,14.41
2022-10-18T08:45:40.894Z,14.39
2022-10-18T08:48:18.232Z,14.40
2022-10-18T08:50:46.045Z,14.40
2022-10-18T08:53:36.301Z,14.40
2022-10-18T08:56:13.939Z,14.42
2022-10-18T08:58:44.906Z,14.43
2022-10-18T09:01:27.096Z,14.43
2022-10-18T09:04:06.553Z,14.45
2022-10-18T09:06:51.583Z,14.46
2022-10-18T09:09:33.774Z,14.48
2022-10-18T09:12:15.960Z,14.49
2022-10-18T09:15:04.194Z,14.49
2022-10-18T09:18:07.780Z,14.51
2022-10-18T09:21:04.590Z,14.56
2022-10-18T09:23:49.195Z,14.62
2022-10-18T09:26:19.994Z,14.68
2022-10-18T09:31:44.298Z,14.78
2022-10-18T09:34:24.635Z,14.79
2022-10-18T09:36:51.811Z,14.78
2022-10-18T09:39:22.445Z,14.76
2022-10-18T09:42:28.172Z,14.78
2022-10-18T09:45:05.572Z,14.85
2022-10-18T09:47:38.692Z,14.92
2022-10-18T09:50:23.542Z,14.93
2022-10-18T09:53:12.785Z,14.97
2022-10-18T09:55:54.731Z,15.00
2022-10-18T09:58:24.434Z,15.04
2022-10-18T10:00:52.637Z,15.04
2022-10-18T10:03:19.219Z,15.03
2022-10-18T10:05:46.239Z,15.03
2022-10-18T10:08:12.621Z,15.04
2022-10-18T10:10:45.118Z,15.07
2022-10-18T10:13:23.711Z,15.12
2022-10-18T10:15:59.856Z,15.20
2022-10-18T10:18:32.420Z,15.25
2022-10-18T10:21:02.388Z,15.29
2022-10-18T10:23:33.088Z,15.28
2022-10-18T10:26:22.180Z,15.22
2022-10-18T10:28:49.220Z,15.19
2022-10-18T10:31:32.645Z,15.14
2022-10-18T10:34:13.988Z,15.07
2022-10-18T10:36:50.695Z,15.00
2022-10-18T10:39:19.277Z,14.96
2022-10-18T10:41:54.227Z,14.91
2022-10-18T10:44:28.413Z,14.87
2022-10-18T10:46:55.156Z,14.83
2022-10-18T10:49:39.680Z,14.80
2022-10-18T10:52:26.944Z,14.78
2022-10-18T10:55:05.782Z,14.77
2022-10-18T10:57:46.250Z,14.76
2022-10-18T11:00:44.481Z,14.75
2022-10-18T11:03:27.879Z,14.74
2022-10-18T11:05:57.035Z,14.72
2022-10-18T11:08:32.522Z,14.72
2022-10-18T11:11:02.223Z,14.72
2022-10-18T11:13:41.519Z,14.74
2022-10-18T11:16:38.746Z,14.77
2022-10-18T11:19:25.147Z,14.78
2022-10-18T11:21:55.989Z,14.81
2022-10-18T11:24:23.333Z,14.86
2022-10-18T11:27:05.632Z,14.90
2022-10-18T11:29:38.141Z,14.91
2022-10-18T11:32:04.377Z,14.92
2022-10-18T11:34:45.935Z,14.91
2022-10-18T11:37:44.698Z,14.90
2022-10-18T11:40:40.878Z,14.90
2022-10-18T11:43:07.086Z,14.91
2022-10-18T11:45:59.827Z,14.91
2022-10-18T11:48:32.040Z,14.91
2022-10-18T11:51:26.491Z,14.92
2022-10-18T11:54:29.166Z,14.91
2022-10-18T11:57:17.600Z,14.87
2022-10-18T12:00:08.146Z,14.87
2022-10-18T12:03:02.824Z,14.87
2022-10-18T12:05:29.559Z,14.85
2022-10-18T12:08:01.957Z,14.81
2022-10-18T12:10:44.482Z,14.78
2022-10-18T12:13:36.842Z,14.75
2022-10-18T12:16:06.145Z,14.73
2022-10-18T12:18:35.277Z,14.74
2022-10-18T12:21:01.944Z,14.73
2022-10-18T12:24:00.189Z,14.71
2022-10-18T12:26:28.470Z,14.69
2022-10-18T12:28:57.614Z,14.69
2022-10-18T12:31:33.045Z,14.69
2022-10-18T12:34:10.218Z,14.65
2022-10-18T12:36:52.545Z,14.61
2022-10-18T12:39:37.494Z,14.56
2022-10-18T12:42:27.758Z,14.52
2022-10-18T12:45:25.635Z,14.48
2022-10-18T12:47:52.787Z,14.45
2022-10-18T12:50:30.369Z,14.42
2022-10-18T12:53:08.794Z,14.40
2022-10-18T12:55:40.883Z,14.39
2022-10-18T12:58:13.253Z,14.38
2022-10-18T13:00:42.458Z,14.35
2022-10-18T13:03:11.526Z,14.32
2022-10-18T13:05:57.304Z,14.27
2022-10-18T13:08:26.274Z,14.20
2022-10-18T13:11:11.283Z,14.15
2022-10-18T13:13:57.402Z,14.10
2022-10-18T13:16:30.527Z,14.04
2022-10-18T13:19:15.861Z,13.96
2022-10-18T13:22:05.224Z,13.90
2022-10-18T13:24:45.004Z,13.87
2022-10-18T13:27:36.340Z,13.83
2022-10-18T13:30:17.908Z,13.81
2022-10-18T13:33:00.145Z,13.77
2022-10-18T13:35:45.148Z,13.74
2022-10-18T13:38:46.293Z,13.71
2022-10-18T13:41:21.671Z,13.66
2022-10-18T13:44:06.980Z,13.64
2022-10-18T13:46:33.215Z,13.61
2022-10-18T13:49:30.289Z,13.59
2022-10-18T13:52:19.739Z,13.57
2022-10-18T13:55:15.956Z,13.56
2022-10-18T13:57:58.169Z,13.56
2022-10-18T14:00:49.061Z,13.53
2022-10-18T14:03:26.956Z,13.50
2022-10-18T14:06:33.832Z,13.49
2022-10-18T14:09:40.204Z,13.45
2022-10-18T14:12:33.784Z,13.42
2022-10-18T14:15:23.176Z,13.39
2022-10-18T14:18:21.395Z,13.35
2022-10-18T14:21:12.795Z,13.32
2022-10-18T14:23:43.940Z,13.30
2022-10-18T14:26:15.961Z,13.27
2022-10-18T14:29:00.256Z,13.26
2022-10-18T14:31:27.459Z,13.24
2022-10-18T14:33:57.878Z,13.20
2022-10-18T14:36:26.393Z,13.16
2022-10-18T14:39:01.796Z,13.13
2022-10-18T14:41:39.574Z,13.11
2022-10-18T14:44:26.750Z,13.07
2022-10-18T14:47:24.938Z,13.04
2022-10-18T14:49:57.032Z,12.99
2022-10-18T14:52:29.475Z,12.99
2022-10-18T14:54:58.897Z,12.96
2022-10-18T14:57:32.585Z,12.93
2022-10-18T15:00:06.694Z,12.91
2022-10-18T15:02:36.703Z,12.89
2022-10-18T15:05:19.856Z,12.87
2022-10-18T15:07:47.543Z,12.85
2022-10-18T15:10:20.720Z,12.83
2022-10-18T15:13:08.735Z,12.82
2022-10-18T15:15:35.411Z,12.81
2022-10-18T15:18:04.371Z,12.81
2022-10-18T15:20:34.395Z,12.80
2022-10-18T15:23:25.304Z,12.78
2022-10-18T15:26:01.638Z,12.75
2022-10-18T15:28:38.656Z,12.72
2022-10-18T15:31:06.099Z,12.70
2022-10-18T15:33:33.979Z,12.69
2022-10-18T15:36:22.293Z,12.67
2022-10-18T15:38:50.056Z,12.68
2022-10-18T15:41:37.736Z,12.71
2022-10-18T15:44:20.037Z,12.75
2022-10-18T15:46:47.225Z,12.73
2022-10-18T15:49:45.506Z,12.69
2022-10-18T15:52:43.701Z,12.66
2022-10-18T15:55:29.020Z,12.62
2022-10-18T15:58:11.236Z,12.59
2022-10-18T16:00:37.505Z,12.57
2022-10-18T16:03:03.888Z,12.55
2022-10-18T16:05:30.114Z,12.54
2022-10-18T16:07:56.333Z,12.53
2022-10-18T16:10:22.599Z,12.51
2022-10-18T16:12:48.865Z,12.52
2022-10-18T16:15:15.193Z,12.49
2022-10-18T16:21:29.183Z,12.44
2022-10-18T16:23:56.007Z,12.41
2022-10-18T16:26:41.748Z,12.40
2022-10-18T16:29:31.278Z,12.38
2022-10-18T16:31:58.062Z,12.36
2022-10-18T16:34:26.523Z,12.36
2022-10-18T16:36:52.870Z,12.34
2022-10-18T16:39:21.012Z,12.34
2022-10-18T16:41:47.629Z,12.32
2022-10-18T16:44:16.019Z,12.32
2022-10-18T16:46:42.317Z,12.31
2022-10-18T16:49:18.043Z,12.31
2022-10-18T16:51:44.354Z,12.30
2022-10-18T16:54:10.670Z,12.29
2022-10-18T16:56:38.490Z,12.29
2022-10-18T16:59:05.031Z,12.28
2022-10-18T17:01:31.508Z,12.27
2022-10-18T17:03:57.861Z,12.27
2022-10-18T17:06:27.098Z,12.26
2022-10-18T17:08:55.171Z,12.25
2022-10-18T17:11:23.659Z,12.24
2022-10-18T17:13:50.596Z,12.23
2022-10-18T17:18:55.762Z,12.20
2022-10-18T17:21:23.342Z,12.18
2022-10-18T17:23:49.943Z,12.17
2022-10-18T17:26:28.909Z,12.18
2022-10-18T17:28:59.590Z,12.20
2022-10-18T17:31:27.404Z,12.21
2022-10-18T17:33:55.591Z,12.22
2022-10-18T17:36:21.906Z,12.22
2022-10-18T17:38:55.955Z,12.22
2022-10-18T17:41:24.583Z,12.21
2022-10-18T17:43:54.220Z,12.19
2022-10-18T17:46:28.449Z,12.18
2022-10-18T17:48:54.944Z,12.18
2022-10-18T17:51:22.269Z,12.16
2022-10-18T17:53:54.784Z,12.15
2022-10-18T17:56:22.671Z,12.12
2022-10-18T17:58:52.154Z,12.10
2022-10-18T18:01:23.602Z,12.08
2022-10-18T18:03:56.444Z,12.07
2022-10-18T18:06:30.113Z,12.05
2022-10-18T18:08:58.293Z,12.04
2022-10-18T18:11:38.846Z,12.05
2022-10-18T18:14:12.199Z,12.05
2022-10-18T18:16:45.136Z,12.05
2022-10-18T18:19:27.323Z,12.04
2022-10-18T18:22:15.055Z,12.02
2022-10-18T18:24:42.308Z,12.02
2022-10-18T18:27:09.749Z,12.01
2022-10-18T18:29:48.651Z,12.01
2022-10-18T18:32:21.057Z,12.00
2022-10-18T18:35:18.145Z,12.02
2022-10-18T18:37:51.442Z,12.01
2022-10-18T18:40:17.834Z,12.01
2022-10-18T18:42:56.762Z,11.99
2022-10-18T18:45:32.089Z,11.98
2022-10-18T18:47:58.437Z,11.97
2022-10-18T18:50:24.883Z,11.94
2022-10-18T18:52:51.156Z,11.92
2022-10-18T18:55:17.430Z,11.91
2022-10-18T18:57:44.061Z,11.89
2022-10-18T19:00:14.310Z,11.89
2022-10-18T19:02:40.724Z,11.87
2022-10-18T19:05:07.065Z,11.86
2022-10-18T19:07:36.107Z,11.84
2022-10-18T19:10:04.504Z,11.82
2022-10-18T19:12:30.909Z,11.82
2022-10-18T19:14:59.289Z,11.82
2022-10-18T19:17:26.467Z,11.80
2022-10-18T19:19:53.427Z,11.79
2022-10-18T19:22:20.053Z,11.77
2022-10-18T19:24:46.456Z,11.74
2022-10-18T19:27:23.790Z,11.69
2022-10-18T19:29:50.178Z,11.65
2022-10-18T19:32:18.253Z,11.60
2022-10-18T19:34:47.842Z,11.58
2022-10-18T19:37:15.055Z,11.55
2022-10-18T19:39:42.254Z,11.54
2022-10-18T19:42:12.620Z,11.52
2022-10-18T19:44:41.105Z,11.50
2022-10-18T19:47:11.238Z,11.48
2022-10-18T19:49:39.213Z,11.47
2022-10-18T19:52:05.674Z,11.45
2022-10-18T19:54:32.824Z,11.44
2022-10-18T19:56:59.294Z,11.45
2022-10-18T19:59:29.009Z,11.46
2022-10-18T20:01:56.582Z,11.49
2022-10-18T20:04:55.141Z,11.50
2022-10-18T20:10:38.939Z,11.44
2022-10-18T20:13:15.719Z,11.38
2022-10-18T20:15:50.451Z,11.31
2022-10-18T20:18:23.880Z,11.23
2022-10-18T20:21:00.349Z,11.16
2022-10-18T20:23:47.136Z,11.09
2022-10-18T20:26:27.267Z,11.04
2022-10-18T20:29:08.977Z,10.99
2022-10-18T20:32:01.873Z,10.94
2022-10-18T20:34:31.116Z,10.90
2022-10-18T20:37:04.952Z,10.87
2022-10-18T20:39:39.649Z,10.83
2022-10-18T20:42:08.216Z,10.79
2022-10-18T20:44:36.938Z,10.74
2022-10-18T20:47:12.069Z,10.71
2022-10-18T20:49:40.703Z,10.68
2022-10-18T20:52:07.340Z,10.64
2022-10-18T20:54:35.802Z,10.60
2022-10-18T20:57:03.511Z,10.56
2022-10-18T20:59:30.237Z,10.50
2022-10-18T21:01:59.694Z,10.44
2022-10-18T21:04:26.506Z,10.37
2022-10-18T21:06:53.989Z,10.31
2022-10-18T21:09:23.845Z,10.23
2022-10-18T21:11:57.321Z,10.14
2022-10-18T21:14:24.066Z,10.06
2022-10-18T21:16:51.968Z,9.99
2022-10-18T21:19:25.864Z,9.93
2022-10-18T21:22:00.312Z,9.86
2022-10-18T21:24:32.669Z,9.78
2022-10-18T21:27:00.461Z,9.70
2022-10-18T21:29:27.020Z,9.64
2022-10-18T21:32:00.331Z,9.55
2022-10-18T21:34:46.106Z,9.47
2022-10-18T21:37:13.267Z,9.39
2022-10-18T21:42:36.992Z,9.24
2022-10-18T21:45:11.077Z,9.18
2022-10-18T21:47:45.250Z,9.14
2022-10-18T21:50:26.823Z,9.09
2022-10-18T21:53:04.351Z,9.03
2022-10-18T21:55:36.874Z,9.00
2022-10-18T21:58:06.120Z,8.97
2022-10-18T22:00:43.315Z,8.95
2022-10-18T22:04:13.460Z,8.93
2022-10-18T22:09:59.955Z,8.93
2022-10-18T22:12:46.397Z,8.96
2022-10-18T22:15:14.673Z,8.97
2022-10-18T22:17:45.901Z,8.98
2022-10-18T22:20:18.371Z,8.99
2022-10-18T22:22:46.973Z,9.01
2022-10-18T22:25:21.333Z,9.03
2022-10-18T22:27:49.591Z,9.06
2022-10-18T22:30:16.750Z,9.09
2022-10-18T22:32:43.408Z,9.11
2022-10-18T22:35:15.118Z,9.14
2022-10-18T22:37:48.126Z,9.16
2022-10-18T22:40:15.439Z,9.17
2022-10-18T22:42:41.933Z,9.19
2022-10-18T22:45:22.204Z,9.21
2022-10-18T22:47:54.786Z,9.25
2022-10-18T22:50:24.692Z,9.27
2022-10-18T22:52:58.790Z,9.30
2022-10-18T22:55:32.108Z,9.31
2022-10-18T22:58:10.220Z,9.33
2022-10-18T23:00:43.005Z,9.34
2022-10-18T23:03:11.723Z,9.36
2022-10-18T23:05:46.938Z,9.39
2022-10-18T23:08:26.459Z,9.42
2022-10-18T23:10:57.911Z,9.43
2022-10-18T23:13:28.371Z,9.44
2022-10-18T23:16:04.618Z,9.45
2022-10-18T23:18:35.895Z,9.45
2022-10-18T23:21:12.635Z,9.46
2022-10-18T23:23:41.935Z,9.45
2022-10-18T23:26:19.509Z,9.44
2022-10-18T23:28:48.826Z,9.43
2022-10-18T23:31:23.054Z,9.42
2022-10-18T23:33:56.317Z,9.40
2022-10-18T23:36:29.226Z,9.38
2022-10-18T23:38:58.088Z,9.35
2022-10-18T23:41:29.171Z,9.31
2022-10-18T23:44:22.446Z,9.28
2022-10-18T23:47:01.798Z,9.24
2022-10-18T23:49:31.482Z,9.22
2022-10-18T23:52:05.193Z,9.20
2022-10-18T23:54:38.225Z,9.18
2022-10-18T23:57:10.563Z,9.14
2022-10-18T23:59:37.007Z,9.11
